Time;durP1;ratioP1;P1;durP2;ratioP2;P2;SDS_P1;SDS_P2;PMS_P1;PMS_P2;Temp;Humidity;BMP_temperature;BMP_pressure;BME280_temperature;BME280_humidity;BME280_pressure;Samples;Min_cycle;Max_cycle;Signal;HPM_P1;HPM_P2
2023/04/17 00:00:28;;;;;;;30.98;13.93;;;11.10;70.30;;;;;;5010280;28;20493;-70
2023/04/17 00:02:56;;;;;;;28.08;14.02;;;11.10;70.50;;;;;;4999650;28;20061;-70
2023/04/17 00:05:25;;;;;;;28.52;14.60;;;11.10;70.50;;;;;;4996927;28;20050;-71
2023/04/17 00:07:53;;;;;;;30.75;14.30;;;11.10;70.50;;;;;;5013122;28;20831;-71
2023/04/17 00:10:20;;;;;;;25.97;13.23;;;11.10;70.70;;;;;;5022439;28;20046;-70
2023/04/17 00:12:47;;;;;;;29.05;14.30;;;11.10;70.80;;;;;;5023867;28;20053;-71
2023/04/17 00:15:14;;;;;;;29.17;14.82;;;11.10;70.80;;;;;;5026863;28;20077;-70
2023/04/17 00:17:41;;;;;;;24.13;12.93;;;11.10;70.70;;;;;;5002276;28;20516;-70
2023/04/17 00:20:11;;;;;;;25.77;12.82;;;11.10;70.80;;;;;;5010151;28;20133;-70
2023/04/17 00:22:38;;;;;;;25.63;13.97;;;11.00;70.70;;;;;;5021041;28;20536;-70
2023/04/17 00:25:06;;;;;;;25.38;14.18;;;11.00;70.70;;;;;;5022535;28;20054;-71
2023/04/17 00:27:33;;;;;;;26.90;13.48;;;11.00;70.70;;;;;;5020123;28;20141;-70
2023/04/17 00:30:00;;;;;;;27.10;12.82;;;11.00;70.80;;;;;;5027800;28;20053;-70
2023/04/17 00:32:27;;;;;;;27.33;14.40;;;11.00;70.50;;;;;;5010729;28;20128;-70
2023/04/17 00:34:54;;;;;;;28.40;14.23;;;11.00;70.80;;;;;;5010534;28;20046;-70
2023/04/17 00:37:23;;;;;;;26.85;13.13;;;11.00;70.90;;;;;;5009649;28;20050;-71
2023/04/17 00:39:50;;;;;;;26.08;13.75;;;11.00;71.20;;;;;;5016187;28;20493;-71
2023/04/17 00:42:17;;;;;;;27.20;13.75;;;11.00;71.20;;;;;;5003062;28;20159;-70
2023/04/17 00:44:44;;;;;;;28.38;13.70;;;11.00;71.20;;;;;;4984827;28;20049;-70
2023/04/17 00:47:12;;;;;;;26.40;13.07;;;11.00;71.20;;;;;;5000499;28;20055;-70
2023/04/17 00:49:39;;;;;;;28.83;13.80;;;10.90;71.40;;;;;;4990284;28;20137;-70
2023/04/17 00:52:06;;;;;;;29.33;14.18;;;11.00;71.50;;;;;;4989974;28;20136;-70
2023/04/17 00:54:35;;;;;;;28.13;13.57;;;10.90;71.60;;;;;;4991867;28;20856;-70
2023/04/17 00:57:03;;;;;;;25.63;14.25;;;10.90;71.80;;;;;;4994949;28;20208;-70
2023/04/17 00:59:32;;;;;;;27.37;13.80;;;10.90;71.70;;;;;;4997466;28;20042;-71
2023/04/17 01:01:59;;;;;;;29.75;14.82;;;10.90;71.80;;;;;;5025607;28;20045;-70
2023/04/17 01:04:26;;;;;;;27.25;13.70;;;10.90;71.80;;;;;;5007432;28;20045;-71
2023/04/17 01:06:54;;;;;;;29.25;14.43;;;10.90;71.70;;;;;;5008124;28;20042;-72
2023/04/17 01:09:20;;;;;;;27.23;13.57;;;10.90;71.70;;;;;;4990013;28;20264;-70
2023/04/17 01:11:49;;;;;;;30.10;14.83;;;10.90;71.50;;;;;;4994227;28;20153;-71
2023/04/17 01:14:16;;;;;;;30.05;14.05;;;10.90;71.80;;;;;;5003812;28;20042;-70
2023/04/17 01:16:43;;;;;;;27.17;14.77;;;10.90;71.80;;;;;;4981601;28;20498;-70
2023/04/17 01:19:14;;;;;;;29.50;14.88;;;10.90;71.60;;;;;;5009459;28;20495;-70
2023/04/17 01:21:41;;;;;;;29.40;14.98;;;10.80;71.90;;;;;;4982192;28;20504;-70
2023/04/17 01:24:09;;;;;;;32.07;14.27;;;10.80;71.70;;;;;;4993236;28;20500;-70
2023/04/17 01:26:37;;;;;;;31.00;15.40;;;10.80;71.90;;;;;;4998931;28;20045;-70
2023/04/17 01:29:05;;;;;;;30.77;16.13;;;10.80;72.00;;;;;;5005342;28;20058;-70
2023/04/17 01:31:33;;;;;;;30.42;15.57;;;10.80;71.70;;;;;;4987810;28;20050;-70
2023/04/17 01:34:00;;;;;;;29.50;14.95;;;10.80;71.70;;;;;;4993807;28;20097;-70
2023/04/17 01:36:28;;;;;;;30.77;15.27;;;10.80;71.70;;;;;;5009973;28;20156;-70
2023/04/17 01:38:55;;;;;;;33.75;16.17;;;10.80;71.80;;;;;;5008677;28;20492;-70
2023/04/17 01:41:23;;;;;;;32.20;15.43;;;10.80;71.90;;;;;;4991608;28;20132;-70
2023/04/17 01:43:50;;;;;;;34.92;16.15;;;10.80;72.10;;;;;;5003631;28;20049;-70
2023/04/17 01:46:17;;;;;;;32.20;15.55;;;10.80;72.20;;;;;;5006787;28;20084;-70
2023/04/17 01:48:44;;;;;;;35.47;15.67;;;10.80;72.40;;;;;;5004086;28;20053;-70
2023/04/17 01:51:11;;;;;;;36.08;17.13;;;10.80;72.30;;;;;;5001472;28;20058;-71
2023/04/17 01:53:40;;;;;;;34.47;17.25;;;10.80;72.10;;;;;;4992549;28;20047;-70
2023/04/17 01:56:07;;;;;;;33.28;16.00;;;10.80;72.30;;;;;;5001191;28;20527;-70
2023/04/17 01:58:36;;;;;;;31.75;15.57;;;10.80;72.60;;;;;;5008492;28;20097;-70
2023/04/17 02:01:03;;;;;;;34.83;16.23;;;10.70;72.50;;;;;;5009572;28;20054;-70
2023/04/17 02:03:30;;;;;;;35.17;16.45;;;10.80;72.30;;;;;;5010412;28;20070;-70
2023/04/17 02:05:57;;;;;;;33.97;17.13;;;10.70;72.50;;;;;;4989220;28;20049;-70
2023/04/17 02:08:24;;;;;;;35.72;16.70;;;10.70;72.50;;;;;;5025402;28;20199;-70
2023/04/17 02:10:52;;;;;;;36.22;17.52;;;10.70;72.50;;;;;;5022023;28;20707;-70
2023/04/17 02:13:19;;;;;;;36.10;16.80;;;10.70;72.70;;;;;;5022166;28;20432;-71
2023/04/17 02:15:47;;;;;;;38.45;17.25;;;10.70;72.70;;;;;;4994515;28;20088;-70
2023/04/17 02:18:14;;;;;;;35.00;16.65;;;10.70;73.20;;;;;;5012931;28;20078;-70
2023/04/17 02:20:41;;;;;;;35.10;16.48;;;10.70;73.00;;;;;;4991808;28;20061;-71
2023/04/17 02:23:11;;;;;;;38.17;17.45;;;10.70;73.10;;;;;;4996074;28;20136;-71
2023/04/17 02:25:38;;;;;;;37.13;17.63;;;10.70;73.20;;;;;;5008097;28;20502;-70
2023/04/17 02:28:06;;;;;;;36.55;16.83;;;10.70;73.00;;;;;;4985575;28;20124;-70
2023/04/17 02:30:34;;;;;;;34.65;17.20;;;10.70;73.00;;;;;;4995629;28;20105;-70
2023/04/17 02:33:02;;;;;;;34.72;16.52;;;10.60;73.10;;;;;;5023360;28;20129;-70
2023/04/17 02:35:31;;;;;;;38.83;17.65;;;10.70;73.10;;;;;;4988570;28;20056;-70
2023/04/17 02:37:58;;;;;;;38.40;18.13;;;10.70;73.30;;;;;;5011617;28;20939;-70
2023/04/17 02:40:27;;;;;;;35.58;17.48;;;10.60;73.20;;;;;;4985525;28;20061;-70
2023/04/17 02:43:00;;;;;;;36.63;17.30;;;10.70;72.90;;;;;;5007243;28;20050;-70
2023/04/17 02:45:27;;;;;;;37.88;18.17;;;10.60;72.90;;;;;;4992277;28;20157;-70
2023/04/17 02:47:54;;;;;;;38.67;18.17;;;10.60;73.00;;;;;;5008457;28;20500;-70
2023/04/17 02:50:23;;;;;;;36.40;17.67;;;10.60;72.80;;;;;;5029373;28;20060;-71
2023/04/17 02:53:05;;;;;;;38.28;18.52;;;10.60;73.00;;;;;;4990291;28;20082;-71
2023/04/17 02:55:32;;;;;;;34.83;17.52;;;10.60;72.80;;;;;;4991018;28;20498;-70
2023/04/17 02:57:59;;;;;;;38.08;18.08;;;10.60;73.00;;;;;;5027062;28;20057;-70
2023/04/17 03:00:26;;;;;;;39.55;18.90;;;10.60;73.00;;;;;;4989498;28;20053;-70
2023/04/17 03:02:54;;;;;;;38.93;18.90;;;10.60;73.10;;;;;;5027810;28;20042;-71
2023/04/17 03:05:23;;;;;;;38.97;18.60;;;10.60;73.20;;;;;;4991016;28;20058;-69
2023/04/17 03:07:51;;;;;;;40.63;18.48;;;10.60;73.70;;;;;;4994271;28;20052;-70
2023/04/17 03:10:19;;;;;;;39.33;17.98;;;10.60;73.40;;;;;;4990058;28;20112;-70
2023/04/17 03:12:46;;;;;;;39.40;18.73;;;10.60;73.40;;;;;;5005829;28;20137;-70
2023/04/17 03:15:13;;;;;;;36.27;17.73;;;10.60;73.50;;;;;;5008404;28;20060;-69
2023/04/17 03:17:40;;;;;;;38.60;18.45;;;10.60;73.40;;;;;;4989826;28;20170;-69
2023/04/17 03:20:08;;;;;;;38.75;19.00;;;10.60;73.60;;;;;;4991700;28;20050;-70
2023/04/17 03:22:37;;;;;;;40.13;17.73;;;10.60;73.50;;;;;;5005053;28;20054;-70
2023/04/17 03:25:06;;;;;;;40.80;19.02;;;10.60;73.80;;;;;;4992091;28;20051;-70
2023/04/17 03:27:43;;;;;;;38.80;18.37;;;10.60;73.70;;;;;;5004899;28;20051;-70
2023/04/17 03:30:11;;;;;;;36.08;17.60;;;10.60;73.80;;;;;;4992325;28;20096;-70
2023/04/17 03:32:39;;;;;;;40.53;18.67;;;10.60;73.50;;;;;;4992922;28;20567;-69
2023/04/17 03:35:07;;;;;;;39.80;19.02;;;10.60;73.70;;;;;;5003822;28;20054;-70
2023/04/17 03:37:34;;;;;;;38.03;18.13;;;10.50;73.70;;;;;;4989508;28;20436;-70
2023/04/17 03:40:05;;;;;;;38.93;18.27;;;10.60;73.80;;;;;;4989612;28;20050;-69
2023/04/17 03:42:32;;;;;;;42.28;18.73;;;10.60;73.90;;;;;;5010973;28;20056;-71
2023/04/17 03:44:59;;;;;;;37.75;18.10;;;10.60;74.00;;;;;;4990538;28;20105;-70
2023/04/17 03:47:28;;;;;;;40.67;18.77;;;10.50;74.10;;;;;;5007045;28;20583;-70
2023/04/17 03:49:56;;;;;;;40.05;19.25;;;10.50;73.90;;;;;;5009211;28;20057;-70
2023/04/17 03:52:24;;;;;;;40.80;18.87;;;10.50;73.80;;;;;;4981449;28;20046;-70
2023/04/17 03:54:55;;;;;;;41.05;18.65;;;10.50;73.40;;;;;;5005543;28;20050;-71
2023/04/17 03:57:24;;;;;;;37.50;18.13;;;10.50;73.40;;;;;;5009623;28;20053;-70
2023/04/17 03:59:51;;;;;;;42.08;18.33;;;10.60;73.70;;;;;;5000534;28;20080;-70
2023/04/17 04:02:19;;;;;;;38.97;18.48;;;10.50;73.80;;;;;;4994767;28;20052;-70
2023/04/17 04:04:49;;;;;;;39.33;18.43;;;10.60;73.60;;;;;;5004832;28;20503;-70
2023/04/17 04:07:16;;;;;;;35.50;17.15;;;10.50;73.40;;;;;;5002520;28;20053;-70
2023/04/17 04:09:45;;;;;;;41.55;18.73;;;10.50;73.60;;;;;;5000695;28;20061;-70
2023/04/17 04:12:12;;;;;;;39.17;17.02;;;10.60;73.40;;;;;;5008599;28;20153;-70
2023/04/17 04:14:42;;;;;;;36.70;17.40;;;10.60;73.40;;;;;;4985319;28;20401;-70
2023/04/17 04:17:10;;;;;;;39.20;17.70;;;10.60;73.60;;;;;;5002977;28;20136;-70
2023/04/17 04:19:39;;;;;;;39.67;17.58;;;10.50;73.30;;;;;;5003589;28;20525;-70
2023/04/17 04:22:06;;;;;;;40.35;18.63;;;10.60;73.40;;;;;;5028215;28;20607;-70
2023/04/17 04:24:40;;;;;;;35.83;16.88;;;10.50;73.20;;;;;;5002528;28;20053;-70
2023/04/17 04:27:08;;;;;;;38.95;17.95;;;10.50;73.40;;;;;;5002781;28;20115;-70
2023/04/17 04:29:36;;;;;;;34.17;16.27;;;10.50;73.30;;;;;;5005269;28;20057;-70
2023/04/17 04:32:08;;;;;;;32.90;16.42;;;10.50;73.20;;;;;;5003227;28;20054;-70
2023/04/17 04:34:38;;;;;;;37.33;16.63;;;10.50;73.30;;;;;;5006792;28;20065;-70
2023/04/17 04:37:05;;;;;;;38.33;16.80;;;10.50;73.20;;;;;;5000237;28;20512;-70
2023/04/17 04:39:40;;;;;;;36.97;16.92;;;10.50;73.60;;;;;;5000835;28;20065;-70
2023/04/17 04:42:10;;;;;;;35.40;15.90;;;10.50;73.60;;;;;;4992645;28;20539;-70
2023/04/17 04:44:55;;;;;;;34.25;16.13;;;10.50;73.60;;;;;;5000324;28;20531;-70
2023/04/17 04:47:26;;;;;;;31.58;14.75;;;10.50;73.60;;;;;;5002518;28;20503;-70
2023/04/17 04:49:54;;;;;;;32.72;14.70;;;10.50;73.50;;;;;;5006411;28;20081;-70
2023/04/17 04:52:22;;;;;;;34.50;15.90;;;10.50;73.50;;;;;;4983593;28;20508;-71
2023/04/17 04:54:52;;;;;;;33.47;16.20;;;10.50;73.50;;;;;;5007628;28;20164;-70
2023/04/17 04:57:19;;;;;;;33.55;15.98;;;10.50;73.60;;;;;;5003367;28;20050;-70
2023/04/17 04:59:48;;;;;;;33.83;15.90;;;10.40;73.50;;;;;;5003899;28;20493;-70
2023/04/17 05:02:35;;;;;;;34.15;15.75;;;10.40;73.70;;;;;;5018570;28;20046;-70
2023/04/17 05:05:08;;;;;;;32.65;15.63;;;10.40;73.60;;;;;;5001336;28;20065;-70
2023/04/17 05:07:35;;;;;;;33.73;15.40;;;10.40;73.80;;;;;;4984146;28;20054;-70
2023/04/17 05:10:04;;;;;;;33.83;16.73;;;10.40;73.60;;;;;;4980467;28;20056;-70
2023/04/17 05:12:35;;;;;;;33.17;16.35;;;10.40;73.90;;;;;;4993929;28;20069;-70
2023/04/17 05:15:04;;;;;;;35.53;16.63;;;10.40;73.80;;;;;;5004250;28;20050;-70
2023/04/17 05:17:31;;;;;;;31.20;15.05;;;10.40;74.20;;;;;;4998256;28;20058;-70
2023/04/17 05:19:59;;;;;;;31.97;14.93;;;10.40;74.00;;;;;;4989957;28;20050;-70
2023/04/17 05:22:29;;;;;;;32.78;15.90;;;10.40;74.00;;;;;;5001609;28;20057;-70
2023/04/17 05:25:09;;;;;;;33.80;15.43;;;10.40;74.20;;;;;;4991972;28;20104;-70
2023/04/17 05:27:36;;;;;;;33.58;15.90;;;10.30;74.40;;;;;;4986348;28;20548;-70
2023/04/17 05:30:03;;;;;;;29.67;14.50;;;10.30;74.30;;;;;;4989533;28;20051;-70
2023/04/17 05:32:33;;;;;;;34.10;14.97;;;10.30;74.50;;;;;;5002530;28;20073;-70
2023/04/17 05:35:09;;;;;;;32.22;15.82;;;10.30;74.00;;;;;;4993276;28;20210;-70
2023/04/17 05:37:39;;;;;;;31.85;15.32;;;10.30;74.00;;;;;;4995877;28;20051;-70
2023/04/17 05:40:08;;;;;;;33.40;16.48;;;10.30;74.00;;;;;;4989988;28;20053;-70
2023/04/17 05:42:35;;;;;;;32.60;15.70;;;10.30;74.10;;;;;;5018279;28;20117;-69
2023/04/17 05:45:03;;;;;;;30.87;15.23;;;10.30;74.30;;;;;;4989549;28;20050;-70
2023/04/17 05:47:31;;;;;;;33.60;15.18;;;10.30;74.20;;;;;;4997011;28;20042;-70
2023/04/17 05:49:59;;;;;;;31.13;15.60;;;10.30;74.60;;;;;;5008809;28;20175;-70
2023/04/17 05:52:30;;;;;;;30.45;15.30;;;10.30;74.60;;;;;;5009494;28;20057;-70
2023/04/17 05:54:58;;;;;;;31.60;15.43;;;10.30;74.50;;;;;;5009472;28;20981;-70
2023/04/17 05:57:25;;;;;;;29.67;14.60;;;10.30;74.50;;;;;;5004100;28;20150;-70
2023/04/17 05:59:53;;;;;;;29.70;15.30;;;10.30;74.70;;;;;;4995940;28;20134;-70
2023/04/17 06:02:20;;;;;;;29.48;15.40;;;10.30;74.80;;;;;;4992579;28;20968;-70
2023/04/17 06:04:47;;;;;;;33.55;15.30;;;10.30;74.90;;;;;;4990914;28;20526;-70
2023/04/17 06:07:14;;;;;;;31.25;15.30;;;10.30;74.70;;;;;;4989276;28;20133;-70
2023/04/17 06:09:44;;;;;;;28.07;14.17;;;10.20;74.40;;;;;;5000023;28;20165;-70
2023/04/17 06:12:14;;;;;;;32.28;15.73;;;10.30;74.50;;;;;;4985112;28;20049;-70
2023/04/17 06:14:43;;;;;;;31.98;14.93;;;10.20;74.30;;;;;;5009409;28;20057;-70
2023/04/17 06:17:11;;;;;;;34.08;16.55;;;10.30;74.50;;;;;;4999189;28;20045;-70
2023/04/17 06:19:38;;;;;;;31.52;16.52;;;10.30;75.00;;;;;;4992770;28;20050;-70
2023/04/17 06:22:07;;;;;;;34.60;16.47;;;10.30;74.80;;;;;;5006897;28;20153;-70
2023/04/17 06:24:35;;;;;;;37.17;17.05;;;10.30;74.70;;;;;;5025511;28;20054;-70
2023/04/17 06:27:04;;;;;;;33.03;15.95;;;10.20;75.00;;;;;;5002782;28;20108;-70
2023/04/17 06:29:31;;;;;;;34.08;15.43;;;10.20;75.20;;;;;;5015217;28;20073;-70
2023/04/17 06:31:58;;;;;;;30.88;15.32;;;10.30;75.30;;;;;;5012824;28;20045;-69
2023/04/17 06:34:26;;;;;;;32.73;15.43;;;10.20;75.30;;;;;;4986370;28;20046;-70
2023/04/17 06:36:54;;;;;;;29.50;15.07;;;10.20;75.50;;;;;;5001309;28;20046;-69
2023/04/17 06:39:22;;;;;;;28.25;14.38;;;10.20;75.40;;;;;;4991897;28;20042;-70
2023/04/17 06:41:49;;;;;;;32.58;15.57;;;10.20;75.60;;;;;;4986283;28;20050;-69
2023/04/17 06:44:27;;;;;;;32.33;15.93;;;10.20;75.90;;;;;;4990289;28;20050;-69
2023/04/17 06:46:55;;;;;;;30.90;15.47;;;10.20;75.90;;;;;;4985639;28;20938;-69
2023/04/17 06:49:22;;;;;;;34.65;16.05;;;10.20;75.90;;;;;;4999884;28;20050;-69
2023/04/17 06:51:50;;;;;;;33.30;16.20;;;10.20;75.80;;;;;;4975579;28;20133;-70
2023/04/17 06:54:18;;;;;;;33.60;15.68;;;10.20;75.70;;;;;;4992215;28;20575;-70
2023/04/17 06:56:45;;;;;;;36.75;17.15;;;10.20;75.80;;;;;;4992352;28;20047;-70
2023/04/17 06:59:12;;;;;;;32.07;16.70;;;10.20;75.60;;;;;;4991972;28;20062;-70
2023/04/17 07:01:41;;;;;;;32.75;16.77;;;10.20;75.50;;;;;;5010172;28;20055;-70
2023/04/17 07:04:09;;;;;;;30.38;14.85;;;10.20;75.90;;;;;;5000815;28;20153;-70
2023/04/17 07:06:38;;;;;;;27.77;14.07;;;10.30;75.90;;;;;;5006582;28;20053;-70
2023/04/17 07:09:05;;;;;;;30.70;14.95;;;10.30;75.60;;;;;;5021276;28;20221;-70
2023/04/17 07:11:33;;;;;;;30.03;14.70;;;10.30;75.60;;;;;;5005297;28;20087;-70
2023/04/17 07:14:00;;;;;;;31.02;15.52;;;10.30;75.60;;;;;;5008419;28;20077;-70
2023/04/17 07:16:27;;;;;;;31.90;15.15;;;10.30;75.50;;;;;;5009986;28;20579;-70
2023/04/17 07:18:55;;;;;;;32.80;15.40;;;10.30;75.90;;;;;;4985172;28;20052;-70
2023/04/17 07:21:22;;;;;;;30.67;15.00;;;10.30;76.10;;;;;;5009450;28;20120;-70
2023/04/17 07:23:49;;;;;;;29.07;14.63;;;10.30;75.70;;;;;;5004056;28;20054;-71
2023/04/17 07:26:16;;;;;;;29.88;14.30;;;10.30;75.70;;;;;;5025162;28;20219;-70
2023/04/17 07:28:43;;;;;;;30.65;15.43;;;10.40;75.50;;;;;;5023898;28;20197;-70
2023/04/17 07:31:10;;;;;;;30.13;15.07;;;10.40;75.90;;;;;;5024490;28;20093;-71
2023/04/17 07:33:41;;;;;;;28.13;14.98;;;10.40;75.90;;;;;;5011528;28;20045;-70
2023/04/17 07:36:11;;;;;;;28.83;14.63;;;10.40;76.20;;;;;;5008736;28;20069;-70
2023/04/17 07:38:38;;;;;;;32.88;15.15;;;10.40;75.70;;;;;;5007483;28;20054;-70
2023/04/17 07:41:05;;;;;;;31.75;15.82;;;10.40;75.70;;;;;;5024828;28;20046;-70
2023/04/17 07:43:32;;;;;;;29.70;15.30;;;10.50;76.20;;;;;;5006744;28;20161;-70
2023/04/17 07:45:59;;;;;;;32.85;16.75;;;10.50;76.00;;;;;;5023445;28;20045;-70
2023/04/17 07:48:27;;;;;;;32.13;15.87;;;10.50;76.10;;;;;;5011073;28;20134;-70
2023/04/17 07:50:54;;;;;;;30.27;15.10;;;10.50;76.30;;;;;;5008304;28;20050;-70
2023/04/17 07:53:24;;;;;;;31.00;16.23;;;10.50;75.90;;;;;;5005139;28;20050;-70
2023/04/17 07:55:53;;;;;;;32.17;16.17;;;10.60;75.90;;;;;;5022778;28;20054;-70
2023/04/17 07:58:21;;;;;;;29.23;15.45;;;10.60;76.00;;;;;;5026331;28;20049;-70
2023/04/17 08:00:48;;;;;;;26.20;14.03;;;10.60;76.00;;;;;;5022754;28;20117;-71
2023/04/17 08:03:15;;;;;;;30.38;15.98;;;10.60;76.00;;;;;;5022005;28;20500;-71
2023/04/17 08:05:42;;;;;;;27.88;15.05;;;10.60;76.50;;;;;;5005839;28;20074;-70
2023/04/17 08:08:09;;;;;;;30.05;16.02;;;10.70;76.50;;;;;;5022507;28;20058;-70
2023/04/17 08:10:38;;;;;;;31.77;16.25;;;10.70;76.60;;;;;;5006636;28;20057;-70
2023/04/17 08:13:06;;;;;;;27.30;14.97;;;10.70;76.60;;;;;;5006389;28;20137;-70
2023/04/17 08:15:39;;;;;;;28.63;14.73;;;10.80;76.90;;;;;;5025643;28;20820;-70
2023/04/17 08:18:06;;;;;;;29.60;14.52;;;10.80;76.50;;;;;;5021918;28;20955;-70
2023/04/17 08:20:33;;;;;;;33.35;15.82;;;10.80;76.50;;;;;;5006565;28;20784;-70
2023/04/17 08:23:00;;;;;;;30.85;15.95;;;10.80;76.50;;;;;;5008493;28;20062;-70
2023/04/17 08:25:28;;;;;;;30.20;16.20;;;10.90;76.20;;;;;;5003482;28;20546;-70
2023/04/17 08:27:57;;;;;;;31.38;16.98;;;10.90;76.40;;;;;;5003877;28;20164;-70
2023/04/17 08:30:24;;;;;;;30.40;16.15;;;10.90;76.40;;;;;;5003752;28;20057;-70
2023/04/17 08:32:51;;;;;;;31.92;17.15;;;11.00;76.50;;;;;;5023668;28;20065;-70
2023/04/17 08:35:19;;;;;;;31.20;16.98;;;11.00;76.50;;;;;;5008623;28;20060;-70
2023/04/17 08:37:46;;;;;;;31.57;17.03;;;11.00;76.50;;;;;;5021860;28;20050;-70
2023/04/17 08:40:14;;;;;;;35.08;17.92;;;11.10;76.70;;;;;;5005765;28;20050;-71
2023/04/17 08:42:42;;;;;;;34.25;18.35;;;11.10;77.00;;;;;;5022076;28;20806;-71
2023/04/17 08:45:12;;;;;;;32.72;17.73;;;11.10;76.90;;;;;;5020532;28;20070;-71
2023/04/17 08:47:41;;;;;;;32.55;16.63;;;11.10;76.70;;;;;;5020181;28;20172;-71
2023/04/17 08:50:10;;;;;;;34.23;18.93;;;11.10;76.40;;;;;;5005419;28;20130;-70
2023/04/17 08:52:41;;;;;;;32.70;17.90;;;11.10;76.50;;;;;;5024011;28;20058;-71
2023/04/17 08:55:09;;;;;;;35.75;19.17;;;11.30;76.80;;;;;;5005345;28;20050;-70
2023/04/17 08:57:53;;;;;;;35.00;18.27;;;11.30;76.80;;;;;;5019644;28;20054;-70
2023/04/17 09:00:26;;;;;;;36.78;19.02;;;11.30;76.80;;;;;;5020742;28;20046;-70
2023/04/17 09:02:54;;;;;;;37.07;19.20;;;11.40;77.20;;;;;;5023274;28;20555;-70
2023/04/17 09:05:23;;;;;;;36.85;19.38;;;11.40;77.40;;;;;;5023077;28;20054;-71
2023/04/17 09:07:50;;;;;;;36.47;19.23;;;11.40;77.40;;;;;;5017752;28;20053;-71
2023/04/17 09:10:17;;;;;;;34.13;17.58;;;11.50;77.10;;;;;;5004645;28;20162;-71
2023/04/17 09:13:00;;;;;;;35.47;19.38;;;11.50;76.80;;;;;;5012051;28;20512;-71
2023/04/17 09:15:28;;;;;;;36.80;19.13;;;11.60;77.00;;;;;;4999727;28;20098;-71
2023/04/17 09:17:55;;;;;;;36.53;20.23;;;11.70;76.90;;;;;;5023785;28;20109;-71
2023/04/17 09:20:23;;;;;;;37.83;20.08;;;11.70;77.00;;;;;;5016372;28;20148;-71
2023/04/17 09:22:59;;;;;;;37.05;19.83;;;11.70;77.20;;;;;;5003234;28;20054;-71
2023/04/17 09:25:27;;;;;;;35.22;19.48;;;11.80;77.30;;;;;;4999347;28;20068;-71
2023/04/17 09:27:55;;;;;;;36.30;19.37;;;11.90;77.10;;;;;;4999670;28;20810;-71
2023/04/17 09:30:25;;;;;;;34.97;18.50;;;11.90;77.00;;;;;;5025178;28;20058;-70
2023/04/17 09:33:05;;;;;;;34.28;18.85;;;12.00;77.10;;;;;;5006022;28;20147;-70
2023/04/17 09:35:34;;;;;;;34.88;19.02;;;12.00;77.10;;;;;;5018862;28;20176;-71
2023/04/17 09:38:01;;;;;;;34.03;18.73;;;12.10;77.10;;;;;;4999644;28;20050;-71
2023/04/17 09:40:36;;;;;;;33.00;17.90;;;12.10;77.00;;;;;;5005017;28;20654;-70
2023/04/17 09:43:04;;;;;;;31.90;17.48;;;12.20;76.70;;;;;;5008584;28;20054;-71
2023/04/17 09:45:35;;;;;;;31.52;18.40;;;12.20;76.40;;;;;;5020902;28;20184;-71
2023/04/17 09:48:06;;;;;;;32.75;19.73;;;12.30;76.40;;;;;;5004804;28;20060;-71
2023/04/17 09:50:33;;;;;;;31.70;19.25;;;12.30;76.40;;;;;;5018307;28;20046;-71
2023/04/17 09:53:02;;;;;;;31.87;18.60;;;12.30;76.50;;;;;;5024078;28;20112;-71
2023/04/17 09:55:30;;;;;;;32.35;18.45;;;12.40;76.70;;;;;;5023365;28;20069;-71
2023/04/17 09:58:02;;;;;;;31.27;18.00;;;12.50;76.60;;;;;;5026279;28;20049;-71
2023/04/17 10:00:31;;;;;;;29.02;18.02;;;12.50;76.70;;;;;;5005624;28;20046;-70
2023/04/17 10:02:59;;;;;;;29.05;17.30;;;12.50;76.90;;;;;;5020938;28;20128;-71
2023/04/17 10:05:31;;;;;;;31.83;18.73;;;12.50;76.90;;;;;;4988711;28;20061;-70
2023/04/17 10:07:59;;;;;;;28.70;18.02;;;12.60;76.70;;;;;;5020804;28;20050;-71
2023/04/17 10:10:29;;;;;;;28.40;18.15;;;12.70;76.90;;;;;;5007819;28;20042;-70
2023/04/17 10:12:59;;;;;;;28.02;17.65;;;12.70;76.60;;;;;;5024111;28;20536;-70
2023/04/17 10:15:28;;;;;;;24.63;15.90;;;12.80;76.70;;;;;;5004544;28;20054;-71
2023/04/17 10:17:56;;;;;;;24.93;16.17;;;12.90;76.80;;;;;;5025772;28;20124;-71
2023/04/17 10:20:36;;;;;;;28.13;16.70;;;12.90;76.70;;;;;;5004849;28;20519;-71
2023/04/17 10:23:30;;;;;;;25.95;14.93;;;13.00;77.10;;;;;;5026617;28;20053;-71
2023/04/17 10:26:37;;;;;;;22.52;15.30;;;13.10;77.10;;;;;;5013360;28;20152;-70
2023/04/17 10:29:04;;;;;;;22.70;14.13;;;13.10;77.00;;;;;;5023333;28;20144;-70
2023/04/17 10:32:19;;;;;;;23.27;14.30;;;13.20;77.00;;;;;;5007130;28;20611;-70
2023/04/17 10:34:46;;;;;;;22.50;13.55;;;13.30;76.60;;;;;;4973668;28;20058;-70
2023/04/17 10:37:15;;;;;;;19.92;12.68;;;13.30;76.50;;;;;;5002574;28;20058;-70
2023/04/17 10:39:59;;;;;;;22.70;14.02;;;13.40;75.80;;;;;;5022468;28;20057;-70
2023/04/17 10:42:29;;;;;;;19.75;13.77;;;13.50;75.80;;;;;;5024584;28;20653;-69
2023/04/17 10:45:00;;;;;;;21.30;13.43;;;13.50;75.60;;;;;;5022445;28;20061;-70
2023/04/17 10:47:32;;;;;;;19.38;12.93;;;13.60;75.50;;;;;;5019831;28;20069;-70
2023/04/17 10:50:02;;;;;;;18.63;11.93;;;13.70;75.70;;;;;;5000740;28;20053;-70
2023/04/17 10:52:42;;;;;;;18.90;11.60;;;13.70;75.70;;;;;;5023417;28;20057;-70
2023/04/17 10:55:13;;;;;;;18.90;12.55;;;13.90;75.50;;;;;;5004055;28;20863;-70
2023/04/17 10:57:54;;;;;;;18.40;11.40;;;13.90;75.40;;;;;;5002919;28;20049;-71
2023/04/17 11:00:29;;;;;;;20.23;12.32;;;14.00;75.20;;;;;;5019014;28;20050;-71
2023/04/17 11:02:56;;;;;;;17.25;10.90;;;14.10;74.90;;;;;;5004973;28;20139;-70
2023/04/17 11:05:23;;;;;;;16.58;11.13;;;14.20;74.50;;;;;;5024615;28;20062;-71
2023/04/17 11:07:52;;;;;;;18.10;11.50;;;14.20;73.60;;;;;;5024168;28;20088;-70
2023/04/17 11:10:21;;;;;;;18.20;10.50;;;14.30;73.20;;;;;;5004685;28;20156;-70
2023/04/17 11:12:50;;;;;;;16.08;10.55;;;14.30;73.00;;;;;;5005812;28;20149;-69
2023/04/17 11:15:17;;;;;;;17.60;10.80;;;14.40;72.90;;;;;;5001336;28;20055;-70
2023/04/17 11:17:48;;;;;;;16.10;10.43;;;14.40;72.40;;;;;;5006380;28;20357;-70
2023/04/17 11:20:20;;;;;;;16.45;10.05;;;14.50;72.60;;;;;;5002462;28;20571;-70
2023/04/17 11:22:47;;;;;;;14.47;9.73;;;14.50;72.30;;;;;;5024345;28;20164;-70
2023/04/17 11:25:28;;;;;;;16.17;9.02;;;14.60;71.60;;;;;;5003996;28;20050;-70
2023/04/17 11:27:56;;;;;;;15.27;9.57;;;14.70;71.20;;;;;;5022828;28;20058;-71
2023/04/17 11:30:32;;;;;;;16.95;10.43;;;14.70;71.10;;;;;;4987611;28;20954;-70
2023/04/17 11:33:00;;;;;;;15.95;10.27;;;14.80;70.90;;;;;;5025079;28;20144;-71
2023/04/17 11:35:29;;;;;;;16.97;9.93;;;14.90;70.70;;;;;;4986865;28;20193;-70
2023/04/17 11:38:11;;;;;;;14.95;9.43;;;15.00;70.10;;;;;;5024359;28;20048;-70
2023/04/17 11:40:48;;;;;;;14.00;9.10;;;15.00;70.20;;;;;;5026226;28;20167;-70
2023/04/17 11:43:15;;;;;;;12.45;8.75;;;15.10;69.70;;;;;;5003911;28;20065;-70
2023/04/17 11:45:44;;;;;;;14.23;8.70;;;15.20;69.20;;;;;;5021126;28;20160;-70
2023/04/17 11:48:13;;;;;;;14.30;9.53;;;15.30;69.10;;;;;;5001961;28;20054;-70
2023/04/17 11:50:42;;;;;;;14.35;9.55;;;15.40;69.20;;;;;;5023971;28;20164;-71
2023/04/17 11:53:13;;;;;;;17.13;10.35;;;15.40;69.60;;;;;;5006608;28;20157;-71
2023/04/17 11:55:40;;;;;;;14.55;9.07;;;15.50;68.80;;;;;;5008993;28;20826;-71
2023/04/17 11:58:10;;;;;;;14.45;9.48;;;15.60;68.90;;;;;;5004045;28;20064;-71
2023/04/17 12:00:39;;;;;;;13.70;9.23;;;15.70;68.50;;;;;;4998735;28;20112;-70
2023/04/17 12:03:35;;;;;;;14.18;9.82;;;15.80;68.20;;;;;;5001763;28;20042;-71
2023/04/17 12:06:03;;;;;;;15.18;9.80;;;15.90;68.40;;;;;;5006662;28;20057;-71
2023/04/17 12:08:31;;;;;;;16.65;9.77;;;16.00;68.00;;;;;;5025853;28;20050;-70
2023/04/17 12:10:58;;;;;;;14.65;9.68;;;16.00;67.50;;;;;;5027073;28;20140;-71
2023/04/17 12:13:27;;;;;;;13.23;8.93;;;16.10;67.10;;;;;;5027609;28;20053;-71
2023/04/17 12:15:54;;;;;;;14.32;9.50;;;16.20;67.00;;;;;;5001048;28;20137;-71
2023/04/17 12:18:21;;;;;;;12.82;8.35;;;16.30;66.20;;;;;;5004870;28;20050;-71
2023/04/17 12:20:48;;;;;;;14.57;9.55;;;16.40;65.60;;;;;;5005416;28;20061;-71
2023/04/17 12:23:15;;;;;;;15.07;9.13;;;16.50;65.10;;;;;;5006974;28;20137;-71
2023/04/17 12:25:42;;;;;;;14.63;9.60;;;16.50;65.50;;;;;;5007080;28;20057;-71
2023/04/17 12:28:09;;;;;;;14.85;9.07;;;16.60;64.70;;;;;;5025434;28;20104;-71
2023/04/17 12:30:38;;;;;;;15.07;9.30;;;16.70;64.80;;;;;;5012536;28;20061;-71
2023/04/17 12:33:06;;;;;;;14.10;9.25;;;16.70;64.70;;;;;;5021160;28;20650;-70
2023/04/17 12:35:34;;;;;;;16.67;10.13;;;16.80;64.60;;;;;;5006009;28;20078;-70
2023/04/17 12:38:01;;;;;;;15.53;9.77;;;16.90;63.70;;;;;;5026895;28;20042;-70